Flight Track Log - Related Links

Times and Time Zones

All times are in EDT time to prevent confusion due to time zone crossing. See the SWA720 flight status page for this flight to view local times or setup timezone preferences in your user account.

Time Position Orientation Groundspeed Altitude Reporting Facility
EDT Latitude Longitude Course Direction KTS MPH feet Rate Location/Type
Sat 05:07:13 PM 29.6519 -95.2872 335° Northwest 152 175 600  Level Houston Center
Sat 05:07:32 PM 29.6631 -95.2931 335° Northwest 149 171 1,300 1,375 Climbing Houston Center
Sat 05:08:01 PM 29.6775 -95.2894 12° North 169 194 1,700 2,164 Climbing Houston Center
Sat 05:08:33 PM 29.7142 -95.2772 16° North 200 230 3,500 2,323 Climbing Houston Center
Sat 05:09:03 PM 29.7447 -95.2717 North 204 235 4,100 2,935 Climbing Houston Center
Sat 05:10:05 PM 29.8142 -95.2894 347° North 258 297 8,000 3,290 Climbing Houston Center
Sat 05:11:07 PM 29.8783 -95.3225 336° Northwest 268 308 10,900 2,710 Climbing Houston Center
Sat 05:12:09 PM 29.9561 -95.2714 30° Northeast 326 375 13,600 2,468 Climbing Houston Center
Sat 05:13:11 PM 30.0411 -95.2200 28° Northeast 341 392 16,000 2,419 Climbing Houston Center
Sat 05:14:13 PM 30.1292 -95.1628 29° Northeast 359 413 18,600 2,371 Climbing Houston Center
Sat 05:15:15 PM 30.2217 -95.1042 29° Northeast 375 432 20,900 2,468 Climbing Houston Center
Sat 05:16:17 PM 30.3372 -95.0311 29° Northeast 392 451 23,700 2,129 Climbing Houston Center
Sat 05:17:19 PM 30.4422 -94.9639 29° Northeast 413 475 25,300 1,597 Climbing Houston Center
Sat 05:18:21 PM 30.5486 -94.8958 29° Northeast 433 498 27,000 1,597 Climbing Houston Center
Sat 05:19:23 PM 30.6522 -94.8169 33° Northeast 445 512 28,600 1,548 Climbing Houston Center
Sat 05:20:25 PM 30.7583 -94.7347 34° Northeast 456 525 30,200 1,500 Climbing Houston Center
Sat 05:21:27 PM 30.8653 -94.6517 34° Northeast 463 533 31,700 1,645 Climbing Houston Center
Sat 05:22:29 PM 30.9933 -94.5517 34° Northeast 468 539 33,600 1,597 Climbing Houston Center
Sat 05:23:31 PM 31.0992 -94.4697 34° Northeast 463 533 35,000 1,065 Climbing Houston Center
Sat 05:24:33 PM 31.2064 -94.3867 34° Northeast 467 537 35,800 919 Climbing Houston Center
Sat 05:25:35 PM 31.3169 -94.3011 33° Northeast 476 548 36,900 1,161 Climbing Houston Center
Sat 05:26:37 PM 31.4261 -94.2164 34° Northeast 475 547 38,200 1,024 Climbing Houston Center
Sat 05:27:38 PM 31.5558 -94.1139 34° Northeast 469 540 39,000 390 Climbing Houston Center
Sat 05:28:40 PM 31.6644 -94.0286 34° Northeast 470 541 39,000  Level Houston Center
Sat 05:29:42 PM 31.7744 -93.9417 34° Northeast 475 547 39,000  Level Houston Center
Sat 05:30:44 PM 31.8814 -93.8572 34° Northeast 474 545 39,000  Level Houston Center
Sat 05:31:46 PM 31.9903 -93.7697 34° Northeast 473 544 39,000  Level Houston Center
Sat 05:32:48 PM 32.1014 -93.6789 35° Northeast 476 548 39,000  Level Houston Center
Sat 05:33:32 PM 32.1908 -93.5914 40° Northeast 475 547 39,000  Level Fort Worth Center
Sat 05:34:32 PM 32.2572 -93.4411 62° Northeast 470 541 39,000  Level Fort Worth Center
Sat 05:35:32 PM 32.3308 -93.3272 53° Northeast 485 558 39,000  Level Fort Worth Center
Sat 05:36:32 PM 32.4178 -93.1831 54° Northeast 485 558 39,000  Level Fort Worth Center
Sat 05:37:32 PM 32.4892 -93.0689 53° Northeast 485 558 39,000  Level Fort Worth Center
Sat 05:38:32 PM 32.5761 -92.9267 54° Northeast 485 558 39,000  Level Fort Worth Center
Sat 05:39:32 PM 32.6569 -92.7994 53° Northeast 485 558 39,000  Level Fort Worth Center
Sat 05:40:32 PM 32.7319 -92.6869 52° Northeast 485 558 39,000  Level Fort Worth Center
Sat 05:41:32 PM 32.8108 -92.5592 54° Northeast 485 558 39,000  Level Fort Worth Center
Sat 05:42:32 PM 32.8911 -92.4261 54° Northeast 485 558 39,000  Level Fort Worth Center
Sat 05:44:58 PM 33.0836 -92.0953 55° Northeast 491 565 39,000  Level Memphis Center
Sat 05:45:58 PM 33.1669 -91.9653 53° Northeast 491 565 39,000  Level Memphis Center
Sat 05:46:58 PM 33.2372 -91.8475 54° Northeast 496 571 39,000  Level Memphis Center
Sat 05:47:58 PM 33.3200 -91.7122 54° Northeast 489 563 39,000  Level Memphis Center
Sat 05:48:58 PM 33.3986 -91.5814 54° Northeast 489 563 39,000  Level Memphis Center
Sat 05:49:58 PM 33.4772 -91.4506 54° Northeast 489 563 39,000  Level Memphis Center
Sat 05:50:58 PM 33.5575 -91.3169 54° Northeast 489 563 39,000  Level Memphis Center
Sat 05:51:58 PM 33.6358 -91.1806 55° Northeast 489 563 39,000  Level Memphis Center
Sat 05:52:58 PM 33.7158 -91.0489 54° Northeast 489 563 39,000  Level Memphis Center
Sat 05:53:58 PM 33.7936 -90.9172 55° Northeast 483 556 39,000  Level Memphis Center
Sat 05:54:58 PM 33.8714 -90.7850 55° Northeast 483 556 39,000  Level Memphis Center
Sat 05:55:58 PM 33.9469 -90.6525 55° Northeast 488 562 39,000  Level Memphis Center
Sat 05:56:58 PM 34.0267 -90.5150 55° Northeast 494 568 39,000  Level Memphis Center
Sat 05:57:58 PM 34.1122 -90.3697 55° Northeast 489 563 39,000  Level Memphis Center
Sat 05:58:58 PM 34.1914 -90.2317 55° Northeast 494 568 39,000  Level Memphis Center
Sat 05:59:58 PM 34.2683 -90.0983 55° Northeast 488 562 39,000  Level Memphis Center
Sat 06:00:58 PM 34.3472 -89.9572 56° Northeast 488 562 39,000  Level Memphis Center
Sat 06:01:58 PM 34.4261 -89.8158 56° Northeast 493 567 39,000  Level Memphis Center
Sat 06:02:58 PM 34.5025 -89.6792 56° Northeast 488 562 39,000  Level Memphis Center
Sat 06:03:58 PM 34.5811 -89.5372 56° Northeast 493 567 39,000  Level Memphis Center
Sat 06:04:58 PM 34.6614 -89.4003 54° Northeast 493 567 39,000  Level Memphis Center
Sat 06:05:58 PM 34.7394 -89.2578 56° Northeast 493 567 39,000  Level Memphis Center
Sat 06:06:58 PM 34.8175 -89.1228 55° Northeast 493 567 39,000  Level Memphis Center
Sat 06:07:58 PM 34.8933 -88.9847 56° Northeast 493 567 39,000  Level Memphis Center
Sat 06:08:58 PM 34.9711 -88.8492 55° Northeast 493 567 39,000  Level Memphis Center
Sat 06:09:58 PM 35.0464 -88.7133 56° Northeast 493 567 39,000  Level Memphis Center
Sat 06:10:58 PM 35.1217 -88.5750 56° Northeast 487 560 39,000  Level Memphis Center
Sat 06:11:58 PM 35.1908 -88.4592 54° Northeast 481 554 39,000  Level Memphis Center
Sat 06:12:58 PM 35.2639 -88.3200 57° Northeast 481 554 39,000  Level Memphis Center
Sat 06:13:58 PM 35.3236 -88.1633 65° Northeast 481 554 39,000  Level Memphis Center
Sat 06:14:58 PM 35.3814 -88.0142 65° Northeast 488 562 39,000  Level Memphis Center
Sat 06:15:58 PM 35.4450 -87.8442 65° Northeast 488 562 39,000  Level Memphis Center
Sat 06:16:58 PM 35.5042 -87.6869 65° Northeast 488 562 39,000  Level Memphis Center
Sat 06:17:58 PM 35.5653 -87.5317 64° Northeast 488 562 39,000  Level Memphis Center
Sat 06:18:58 PM 35.6242 -87.3739 65° Northeast 498 573 39,000  Level Memphis Center
Sat 06:19:58 PM 35.6850 -87.2183 64° Northeast 498 573 39,000  Level Memphis Center
Sat 06:20:58 PM 35.7414 -87.0603 66° East 504 580 39,000  Level Memphis Center
Sat 06:21:58 PM 35.8019 -86.9042 64° Northeast 504 580 39,000  Level Memphis Center
Sat 06:22:58 PM 35.8600 -86.7456 66° East 499 574 39,000  Level Memphis Center
Sat 06:23:58 PM 35.9178 -86.5892 65° Northeast 499 574 39,000  Level Memphis Center
Sat 06:24:58 PM 35.9775 -86.4325 65° Northeast 499 574 39,000  Level Memphis Center
Sat 06:25:58 PM 36.0350 -86.2733 66° East 499 574 39,000  Level Memphis Center
Sat 06:26:58 PM 36.0944 -86.1186 65° Northeast 499 574 39,000  Level Memphis Center
Sat 06:27:58 PM 36.1514 -85.9589 66° East 499 574 39,000  Level Memphis Center
Sat 06:28:53 PM 36.2006 -85.8267 65° Northeast 506 582 39,000  Level Indianapolis Center
Sat 06:29:54 PM 36.2525 -85.6842 66° East 506 582 39,000  Level Indianapolis Center
Sat 06:30:55 PM 36.3228 -85.4922 66° East 510 587 39,000  Level Indianapolis Center
Sat 06:31:56 PM 36.3803 -85.3308 66° East 509 586 39,000  Level Indianapolis Center
Sat 06:32:58 PM 36.4369 -85.1683 67° East 511 588 39,000  Level Indianapolis Center
Sat 06:33:59 PM 36.4953 -85.0064 66° East 510 587 39,000  Level Indianapolis Center
Sat 06:35:00 PM 36.5517 -84.8436 67° East 511 588 39,000  Level Indianapolis Center
Sat 06:36:01 PM 36.6086 -84.6831 66° East 506 582 39,000  Level Indianapolis Center
Sat 06:37:03 PM 36.6653 -84.5200 67° East 510 587 39,000  Level Indianapolis Center
Sat 06:38:04 PM 36.7267 -84.3442 66° East 509 586 39,000  Level Indianapolis Center
Sat 06:39:05 PM 36.7814 -84.1778 68° East 514 592 39,000  Level Indianapolis Center
Sat 06:40:06 PM 36.8375 -84.0131 67° East 515 593 39,000  Level Indianapolis Center
Sat 06:41:07 PM 36.8906 -83.8478 68° East 511 588 39,000  Level Indianapolis Center
Sat 06:42:09 PM 36.9469 -83.6806 67° East 518 596 39,000  Level Indianapolis Center
Sat 06:43:10 PM 37.0003 -83.5147 68° East 514 592 39,000  Level Indianapolis Center
Sat 06:44:11 PM 37.0539 -83.3483 68° East 514 592 39,000  Level Indianapolis Center
Sat 06:45:12 PM 37.1078 -83.1819 68° East 512 589 39,000  Level Indianapolis Center
Sat 06:46:13 PM 37.1614 -83.0136 68° East 514 592 39,000  Level Indianapolis Center
Sat 06:47:14 PM 37.2133 -82.8444 69° East 514 592 39,000  Level Indianapolis Center
Sat 06:48:16 PM 37.2661 -82.6758 68° East 513 590 39,000  Level Indianapolis Center
Sat 06:49:17 PM 37.3183 -82.5086 69° East 513 590 39,000  Level Indianapolis Center
Sat 06:50:18 PM 37.3700 -82.3411 69° East 512 589 39,000  Level Indianapolis Center
Sat 06:51:19 PM 37.4228 -82.1733 68° East 516 594 39,000  Level Indianapolis Center
Sat 06:52:20 PM 37.4747 -82.0042 69° East 518 596 39,000  Level Indianapolis Center
Sat 06:53:21 PM 37.5347 -81.8050 69° East 520 598 39,000  Level Indianapolis Center
Sat 06:54:23 PM 37.5861 -81.6317 69° East 526 605 39,000  Level Indianapolis Center
Sat 06:55:24 PM 37.6342 -81.4736 69° East 528 608 39,000  Level Indianapolis Center
Sat 06:56:25 PM 37.6833 -81.3025 70° East 531 611 39,000 -197 Level Indianapolis Center
Sat 06:57:26 PM 37.7436 -81.0983 69° East 532 612 38,600 -492 Descending Indianapolis Center
Sat 06:58:27 PM 37.7947 -80.9292 69° East 530 610 38,000 -295 Descending Indianapolis Center
Sat 06:59:28 PM 37.8392 -80.7736 70° East 526 605 38,000  Level Indianapolis Center
Sat 07:00:29 PM 37.8892 -80.6008 70° East 525 604 38,000  Level Indianapolis Center
Sat 07:01:30 PM 37.9408 -80.4208 70° East 524 603 38,000  Level Indianapolis Center
Sat 07:02:31 PM 37.9997 -80.2167 70° East 526 605 38,000  Level Indianapolis Center
Sat 07:03:43 PM 38.0581 -80.0225 69° East 518 596 38,000  Level Washington Center
Sat 07:04:43 PM 38.1061 -79.8458 71° East 523 602 38,000  Level Washington Center
Sat 07:05:42 PM 38.1561 -79.6717 70° East 518 596 38,000 -508 Level Washington Center
Sat 07:06:41 PM 38.2056 -79.4972 70° East 518 596 37,000 -2,017 Descending Washington Center
Sat 07:07:41 PM 38.2550 -79.3228 70° East 518 596 34,000 -3,273 Descending Washington Center
Sat 07:08:42 PM 38.3064 -79.1400 70° East 529 609 30,400 -3,344 Descending Washington Center
Sat 07:09:43 PM 38.3511 -78.9675 72° East 541 623 27,200 -1,686 Descending Washington Center
Sat 07:10:43 PM 38.4044 -78.7658 71° East 551 634 27,000 -102 Descending Washington Center
Sat 07:11:41 PM 38.4531 -78.5797 72° East 551 634 27,000  Level Washington Center
Sat 07:12:41 PM 38.5014 -78.3958 71° East 551 634 27,000 -397 Level Washington Center
Sat 07:13:42 PM 38.5514 -78.2092 71° East 551 634 26,200 -2,350 Descending Washington Center
Sat 07:14:41 PM 38.5989 -78.0250 72° East 551 634 22,300 -3,500 Descending Washington Center
Sat 07:15:42 PM 38.6419 -77.8536 72° East 533 613 19,200 -2,150 Descending Washington Center
Sat 07:16:41 PM 38.6511 -77.6969 86° East 470 541 18,000 -1,041 Descending Washington Center
Sat 07:17:43 PM 38.6667 -77.5500 82° East 393 452 17,100 -934 Descending Potomac TRACON
Sat 07:18:43 PM 38.6667 -77.4167 90° East 387 445 16,100 -600 Descending Potomac TRACON
Sat 07:19:43 PM 38.6833 -77.2833 81° East 368 423 15,900 -1,050 Descending Potomac TRACON
Sat 07:20:43 PM 38.6833 -77.1500 90° East 370 426 14,000 -1,950 Descending Potomac TRACON
Sat 07:21:43 PM 38.6833 -77.0167 90° East 359 413 12,000 -1,800 Descending Potomac TRACON
Sat 07:22:43 PM 38.7000 -76.8833 81° East 351 404 10,400 -1,210 Descending Potomac TRACON
Sat 07:23:42 PM 38.7031 -76.7914 88° East 337 388 9,600 -900 Descending Washington Center
Sat 07:24:43 PM 38.7292 -76.6881 72° East 312 359 8,600 -1,339 Descending Washington Center
Sat 07:25:43 PM 38.7833 -76.5833 56° Northeast 302 348 6,900 -1,500 Descending Potomac TRACON
Sat 07:26:43 PM 38.8333 -76.5333 38° Northeast 270 311 5,600 -1,263 Descending Potomac TRACON
Sat 07:27:37 PM 38.9000 -76.5500 349° North 250 288 4,500 -1,252 Descending Potomac TRACON
Sat 07:28:38 PM 38.9667 -76.5667 349° North 246 283 3,200 -1,000 Descending Potomac TRACON
Sat 07:29:37 PM 39.0333 -76.5667 360° North 226 260 2,500 -605 Descending Potomac TRACON
Sat 07:30:37 PM 39.0833 -76.5833 345° North 189 217 2,000 -545 Descending Potomac TRACON
Sat 07:31:38 PM 39.1167 -76.6167 322° Northwest 149 171 1,400 -709 Descending Potomac TRACON
Sat 07:32:44 PM 39.1500 -76.6500 322° Northwest 138 159 500 -818 Descending Potomac TRACON
Sat 07:34:00 PM 39.1667 -76.6667 339° North  Level FlightAware Approximate
Sat 07:41:00 PM 39.1754 -76.6683 339° North  Level Estimated

Login

Don't have an account? Register now (free) for customized features, flight alerts, and more!